sensor_id;sensor_type;location;lat;lon;timestamp;P1;durP1;ratioP1;P2;durP2;ratioP2
68942;SDS011;60852;52.190;4.422;2023-08-31T00:01:40;2.20;;;1.77;;
68942;SDS011;60852;52.190;4.422;2023-08-31T00:04:06;2.04;;;1.63;;
68942;SDS011;60852;52.190;4.422;2023-08-31T00:06:39;2.00;;;1.60;;
68942;SDS011;60852;52.190;4.422;2023-08-31T00:09:10;1.91;;;1.56;;
68942;SDS011;60852;52.190;4.422;2023-08-31T00:11:36;1.83;;;1.50;;
68942;SDS011;60852;52.190;4.422;2023-08-31T00:14:02;1.86;;;1.54;;
68942;SDS011;60852;52.190;4.422;2023-08-31T00:16:28;1.91;;;1.59;;
68942;SDS011;60852;52.190;4.422;2023-08-31T00:18:55;1.97;;;1.61;;
68942;SDS011;60852;52.190;4.422;2023-08-31T00:21:21;1.85;;;1.52;;
68942;SDS011;60852;52.190;4.422;2023-08-31T00:23:47;1.78;;;1.49;;
68942;SDS011;60852;52.190;4.422;2023-08-31T00:26:13;1.54;;;1.31;;
68942;SDS011;60852;52.190;4.422;2023-08-31T00:28:39;1.54;;;1.28;;
68942;SDS011;60852;52.190;4.422;2023-08-31T00:31:07;1.70;;;1.41;;
68942;SDS011;60852;52.190;4.422;2023-08-31T00:33:33;1.45;;;1.21;;
68942;SDS011;60852;52.190;4.422;2023-08-31T00:36:00;1.63;;;1.34;;
68942;SDS011;60852;52.190;4.422;2023-08-31T00:38:26;1.75;;;1.44;;
68942;SDS011;60852;52.190;4.422;2023-08-31T00:40:52;1.54;;;1.27;;
68942;SDS011;60852;52.190;4.422;2023-08-31T00:43:19;1.62;;;1.32;;
68942;SDS011;60852;52.190;4.422;2023-08-31T00:45:45;1.68;;;1.39;;
68942;SDS011;60852;52.190;4.422;2023-08-31T00:48:16;1.82;;;1.52;;
68942;SDS011;60852;52.190;4.422;2023-08-31T00:50:43;2.11;;;1.74;;
68942;SDS011;60852;52.190;4.422;2023-08-31T00:53:10;1.98;;;1.62;;
68942;SDS011;60852;52.190;4.422;2023-08-31T00:55:36;2.07;;;1.68;;
68942;SDS011;60852;52.190;4.422;2023-08-31T00:58:01;2.15;;;1.77;;
68942;SDS011;60852;52.190;4.422;2023-08-31T01:00:33;2.23;;;1.81;;
68942;SDS011;60852;52.190;4.422;2023-08-31T01:03:09;2.60;;;2.08;;
68942;SDS011;60852;52.190;4.422;2023-08-31T01:06:01;2.65;;;2.08;;
68942;SDS011;60852;52.190;4.422;2023-08-31T01:11:28;2.29;;;1.78;;
68942;SDS011;60852;52.190;4.422;2023-08-31T01:14:01;1.84;;;1.43;;
68942;SDS011;60852;52.190;4.422;2023-08-31T01:16:36;1.79;;;1.40;;
68942;SDS011;60852;52.190;4.422;2023-08-31T01:19:08;1.54;;;1.22;;
68942;SDS011;60852;52.190;4.422;2023-08-31T01:21:54;1.45;;;1.14;;
68942;SDS011;60852;52.190;4.422;2023-08-31T01:24:25;1.74;;;1.38;;
68942;SDS011;60852;52.190;4.422;2023-08-31T01:26:52;2.03;;;1.57;;
68942;SDS011;60852;52.190;4.422;2023-08-31T01:29:18;1.89;;;1.47;;
68942;SDS011;60852;52.190;4.422;2023-08-31T01:31:44;2.06;;;1.59;;
68942;SDS011;60852;52.190;4.422;2023-08-31T01:34:10;1.94;;;1.48;;
68942;SDS011;60852;52.190;4.422;2023-08-31T01:36:36;2.45;;;1.84;;
68942;SDS011;60852;52.190;4.422;2023-08-31T01:39:15;2.06;;;1.55;;
68942;SDS011;60852;52.190;4.422;2023-08-31T01:41:54;2.01;;;1.51;;
68942;SDS011;60852;52.190;4.422;2023-08-31T01:44:23;2.21;;;1.67;;
68942;SDS011;60852;52.190;4.422;2023-08-31T01:46:53;2.53;;;1.95;;
68942;SDS011;60852;52.190;4.422;2023-08-31T01:49:19;2.92;;;2.29;;
68942;SDS011;60852;52.190;4.422;2023-08-31T01:51:46;2.72;;;2.14;;
68942;SDS011;60852;52.190;4.422;2023-08-31T01:54:11;3.04;;;2.38;;
68942;SDS011;60852;52.190;4.422;2023-08-31T01:56:37;2.55;;;2.02;;
68942;SDS011;60852;52.190;4.422;2023-08-31T01:59:02;2.71;;;2.18;;
68942;SDS011;60852;52.190;4.422;2023-08-31T02:01:28;2.42;;;1.94;;
68942;SDS011;60852;52.190;4.422;2023-08-31T02:03:54;2.54;;;2.04;;
68942;SDS011;60852;52.190;4.422;2023-08-31T02:06:20;2.63;;;2.21;;
68942;SDS011;60852;52.190;4.422;2023-08-31T02:08:45;2.51;;;2.10;;
68942;SDS011;60852;52.190;4.422;2023-08-31T02:11:12;2.48;;;2.09;;
68942;SDS011;60852;52.190;4.422;2023-08-31T02:13:38;2.45;;;2.05;;
68942;SDS011;60852;52.190;4.422;2023-08-31T02:16:04;2.16;;;1.77;;
68942;SDS011;60852;52.190;4.422;2023-08-31T02:18:29;2.22;;;1.85;;
68942;SDS011;60852;52.190;4.422;2023-08-31T02:20:54;2.20;;;1.84;;
68942;SDS011;60852;52.190;4.422;2023-08-31T02:23:20;2.04;;;1.71;;
68942;SDS011;60852;52.190;4.422;2023-08-31T02:25:45;2.36;;;1.98;;
68942;SDS011;60852;52.190;4.422;2023-08-31T02:28:11;2.39;;;2.00;;
68942;SDS011;60852;52.190;4.422;2023-08-31T02:30:36;2.30;;;1.86;;
68942;SDS011;60852;52.190;4.422;2023-08-31T02:33:02;2.62;;;2.12;;
68942;SDS011;60852;52.190;4.422;2023-08-31T02:35:28;2.42;;;1.96;;
68942;SDS011;60852;52.190;4.422;2023-08-31T02:37:54;2.33;;;1.92;;
68942;SDS011;60852;52.190;4.422;2023-08-31T02:40:19;2.18;;;1.84;;
68942;SDS011;60852;52.190;4.422;2023-08-31T02:42:46;3.32;;;2.69;;
68942;SDS011;60852;52.190;4.422;2023-08-31T02:45:15;2.57;;;2.05;;
68942;SDS011;60852;52.190;4.422;2023-08-31T02:47:42;2.83;;;2.29;;
68942;SDS011;60852;52.190;4.422;2023-08-31T02:50:08;2.58;;;2.13;;
68942;SDS011;60852;52.190;4.422;2023-08-31T02:52:34;2.44;;;2.01;;
68942;SDS011;60852;52.190;4.422;2023-08-31T02:54:59;2.86;;;2.33;;
68942;SDS011;60852;52.190;4.422;2023-08-31T02:57:24;2.62;;;2.14;;
68942;SDS011;60852;52.190;4.422;2023-08-31T02:59:50;2.61;;;2.12;;
68942;SDS011;60852;52.190;4.422;2023-08-31T03:02:16;2.57;;;2.08;;
68942;SDS011;60852;52.190;4.422;2023-08-31T03:04:41;2.59;;;2.11;;
68942;SDS011;60852;52.190;4.422;2023-08-31T03:07:07;2.24;;;1.82;;
68942;SDS011;60852;52.190;4.422;2023-08-31T03:09:32;2.26;;;1.84;;
68942;SDS011;60852;52.190;4.422;2023-08-31T03:11:57;2.74;;;2.26;;
68942;SDS011;60852;52.190;4.422;2023-08-31T03:14:23;2.80;;;2.25;;
68942;SDS011;60852;52.190;4.422;2023-08-31T03:16:48;2.98;;;2.36;;
68942;SDS011;60852;52.190;4.422;2023-08-31T03:19:14;2.75;;;2.15;;
68942;SDS011;60852;52.190;4.422;2023-08-31T03:21:39;3.06;;;2.35;;
68942;SDS011;60852;52.190;4.422;2023-08-31T03:24:05;2.87;;;2.22;;
68942;SDS011;60852;52.190;4.422;2023-08-31T03:26:31;2.97;;;2.28;;
68942;SDS011;60852;52.190;4.422;2023-08-31T03:28:56;2.82;;;2.16;;
68942;SDS011;60852;52.190;4.422;2023-08-31T03:31:22;2.89;;;2.24;;
68942;SDS011;60852;52.190;4.422;2023-08-31T03:33:49;3.14;;;2.41;;
68942;SDS011;60852;52.190;4.422;2023-08-31T03:36:15;3.09;;;2.35;;
68942;SDS011;60852;52.190;4.422;2023-08-31T03:38:41;3.08;;;2.37;;
68942;SDS011;60852;52.190;4.422;2023-08-31T03:41:06;3.07;;;2.34;;
68942;SDS011;60852;52.190;4.422;2023-08-31T03:43:32;3.13;;;2.37;;
68942;SDS011;60852;52.190;4.422;2023-08-31T03:45:57;2.91;;;2.22;;
68942;SDS011;60852;52.190;4.422;2023-08-31T03:48:23;3.40;;;2.59;;
68942;SDS011;60852;52.190;4.422;2023-08-31T03:50:50;3.47;;;2.59;;
68942;SDS011;60852;52.190;4.422;2023-08-31T03:53:16;2.75;;;2.01;;
68942;SDS011;60852;52.190;4.422;2023-08-31T03:55:42;3.47;;;2.57;;
68942;SDS011;60852;52.190;4.422;2023-08-31T03:58:07;4.52;;;3.31;;
68942;SDS011;60852;52.190;4.422;2023-08-31T04:00:33;6.17;;;4.29;;
68942;SDS011;60852;52.190;4.422;2023-08-31T04:02:58;7.49;;;4.90;;
68942;SDS011;60852;52.190;4.422;2023-08-31T04:05:23;6.24;;;4.11;;
68942;SDS011;60852;52.190;4.422;2023-08-31T04:07:49;5.90;;;3.84;;
68942;SDS011;60852;52.190;4.422;2023-08-31T04:10:14;4.60;;;3.03;;
68942;SDS011;60852;52.190;4.422;2023-08-31T04:12:40;4.50;;;2.95;;
68942;SDS011;60852;52.190;4.422;2023-08-31T04:15:08;4.01;;;2.70;;
68942;SDS011;60852;52.190;4.422;2023-08-31T04:17:34;3.63;;;2.52;;
68942;SDS011;60852;52.190;4.422;2023-08-31T04:19:59;3.04;;;2.13;;
68942;SDS011;60852;52.190;4.422;2023-08-31T04:22:25;2.69;;;1.87;;
68942;SDS011;60852;52.190;4.422;2023-08-31T04:24:52;3.34;;;2.33;;
68942;SDS011;60852;52.190;4.422;2023-08-31T04:27:18;3.52;;;2.52;;
68942;SDS011;60852;52.190;4.422;2023-08-31T04:29:44;3.63;;;2.70;;
68942;SDS011;60852;52.190;4.422;2023-08-31T04:32:09;3.01;;;2.27;;
68942;SDS011;60852;52.190;4.422;2023-08-31T04:34:35;3.75;;;2.81;;
68942;SDS011;60852;52.190;4.422;2023-08-31T04:37:01;3.84;;;2.77;;
68942;SDS011;60852;52.190;4.422;2023-08-31T04:39:27;3.71;;;2.69;;
68942;SDS011;60852;52.190;4.422;2023-08-31T04:41:52;4.14;;;3.01;;
68942;SDS011;60852;52.190;4.422;2023-08-31T04:44:18;3.83;;;2.83;;
68942;SDS011;60852;52.190;4.422;2023-08-31T04:46:43;5.37;;;3.90;;
68942;SDS011;60852;52.190;4.422;2023-08-31T04:49:09;5.21;;;3.65;;
68942;SDS011;60852;52.190;4.422;2023-08-31T04:51:35;4.75;;;3.28;;
68942;SDS011;60852;52.190;4.422;2023-08-31T04:54:06;5.67;;;3.82;;
68942;SDS011;60852;52.190;4.422;2023-08-31T04:56:33;5.26;;;3.49;;
68942;SDS011;60852;52.190;4.422;2023-08-31T04:58:59;4.28;;;2.87;;
68942;SDS011;60852;52.190;4.422;2023-08-31T05:01:25;4.63;;;3.18;;
68942;SDS011;60852;52.190;4.422;2023-08-31T05:03:51;4.21;;;2.98;;
68942;SDS011;60852;52.190;4.422;2023-08-31T05:06:16;4.13;;;2.98;;
68942;SDS011;60852;52.190;4.422;2023-08-31T05:08:42;4.07;;;2.88;;
68942;SDS011;60852;52.190;4.422;2023-08-31T05:11:07;4.66;;;3.22;;
68942;SDS011;60852;52.190;4.422;2023-08-31T05:13:33;4.82;;;3.31;;
68942;SDS011;60852;52.190;4.422;2023-08-31T05:15:59;4.94;;;3.44;;
68942;SDS011;60852;52.190;4.422;2023-08-31T05:18:25;5.03;;;3.48;;
68942;SDS011;60852;52.190;4.422;2023-08-31T05:20:50;5.05;;;3.47;;
68942;SDS011;60852;52.190;4.422;2023-08-31T05:23:16;4.71;;;3.19;;
68942;SDS011;60852;52.190;4.422;2023-08-31T05:25:42;4.56;;;3.07;;
68942;SDS011;60852;52.190;4.422;2023-08-31T05:28:08;5.31;;;3.67;;
68942;SDS011;60852;52.190;4.422;2023-08-31T05:30:33;4.37;;;3.01;;
68942;SDS011;60852;52.190;4.422;2023-08-31T05:33:00;4.78;;;3.30;;
68942;SDS011;60852;52.190;4.422;2023-08-31T05:35:26;4.26;;;3.01;;
68942;SDS011;60852;52.190;4.422;2023-08-31T05:37:52;3.88;;;2.81;;
68942;SDS011;60852;52.190;4.422;2023-08-31T05:40:17;4.09;;;3.05;;
68942;SDS011;60852;52.190;4.422;2023-08-31T05:42:43;3.80;;;2.88;;
68942;SDS011;60852;52.190;4.422;2023-08-31T05:45:09;4.14;;;3.18;;
68942;SDS011;60852;52.190;4.422;2023-08-31T05:47:34;4.03;;;3.01;;
68942;SDS011;60852;52.190;4.422;2023-08-31T05:50:01;3.84;;;2.86;;
68942;SDS011;60852;52.190;4.422;2023-08-31T05:52:27;3.65;;;2.71;;
68942;SDS011;60852;52.190;4.422;2023-08-31T05:54:52;4.18;;;3.12;;
68942;SDS011;60852;52.190;4.422;2023-08-31T05:57:18;4.13;;;3.08;;
68942;SDS011;60852;52.190;4.422;2023-08-31T05:59:46;3.87;;;2.92;;
68942;SDS011;60852;52.190;4.422;2023-08-31T06:02:12;3.92;;;2.93;;
68942;SDS011;60852;52.190;4.422;2023-08-31T06:04:37;3.63;;;2.70;;
68942;SDS011;60852;52.190;4.422;2023-08-31T06:07:03;4.11;;;3.01;;
68942;SDS011;60852;52.190;4.422;2023-08-31T06:09:28;3.79;;;2.79;;
68942;SDS011;60852;52.190;4.422;2023-08-31T06:11:54;3.77;;;2.76;;
68942;SDS011;60852;52.190;4.422;2023-08-31T06:14:19;4.00;;;2.98;;
68942;SDS011;60852;52.190;4.422;2023-08-31T06:16:45;3.78;;;2.84;;
68942;SDS011;60852;52.190;4.422;2023-08-31T06:19:10;4.43;;;3.33;;
68942;SDS011;60852;52.190;4.422;2023-08-31T06:21:36;4.96;;;3.68;;
68942;SDS011;60852;52.190;4.422;2023-08-31T06:24:01;5.81;;;4.10;;
68942;SDS011;60852;52.190;4.422;2023-08-31T06:26:29;4.53;;;3.30;;
68942;SDS011;60852;52.190;4.422;2023-08-31T06:28:54;3.91;;;2.81;;
68942;SDS011;60852;52.190;4.422;2023-08-31T06:31:19;4.24;;;3.07;;
68942;SDS011;60852;52.190;4.422;2023-08-31T06:33:45;4.49;;;3.31;;
68942;SDS011;60852;52.190;4.422;2023-08-31T06:36:10;3.54;;;2.67;;
68942;SDS011;60852;52.190;4.422;2023-08-31T06:38:36;3.55;;;2.78;;
68942;SDS011;60852;52.190;4.422;2023-08-31T06:41:02;3.33;;;2.59;;
68942;SDS011;60852;52.190;4.422;2023-08-31T06:43:27;3.34;;;2.56;;
68942;SDS011;60852;52.190;4.422;2023-08-31T06:45:53;3.29;;;2.52;;
68942;SDS011;60852;52.190;4.422;2023-08-31T06:48:19;2.85;;;2.20;;
68942;SDS011;60852;52.190;4.422;2023-08-31T06:50:44;2.66;;;2.13;;
68942;SDS011;60852;52.190;4.422;2023-08-31T06:53:10;2.74;;;2.22;;
68942;SDS011;60852;52.190;4.422;2023-08-31T06:55:35;2.74;;;2.20;;
68942;SDS011;60852;52.190;4.422;2023-08-31T06:58:01;3.04;;;2.41;;
68942;SDS011;60852;52.190;4.422;2023-08-31T07:00:27;3.23;;;2.45;;
68942;SDS011;60852;52.190;4.422;2023-08-31T07:02:53;3.06;;;2.35;;
68942;SDS011;60852;52.190;4.422;2023-08-31T07:05:19;3.11;;;2.44;;
68942;SDS011;60852;52.190;4.422;2023-08-31T07:07:51;3.18;;;2.51;;
68942;SDS011;60852;52.190;4.422;2023-08-31T07:10:18;2.67;;;2.12;;
68942;SDS011;60852;52.190;4.422;2023-08-31T07:12:43;2.59;;;2.06;;
68942;SDS011;60852;52.190;4.422;2023-08-31T07:15:09;2.48;;;2.01;;
68942;SDS011;60852;52.190;4.422;2023-08-31T07:17:34;2.46;;;2.01;;
68942;SDS011;60852;52.190;4.422;2023-08-31T07:20:00;2.50;;;2.01;;
68942;SDS011;60852;52.190;4.422;2023-08-31T07:22:25;2.57;;;2.03;;
68942;SDS011;60852;52.190;4.422;2023-08-31T07:24:51;2.43;;;1.93;;
68942;SDS011;60852;52.190;4.422;2023-08-31T07:27:16;2.68;;;2.11;;
68942;SDS011;60852;52.190;4.422;2023-08-31T07:29:41;2.96;;;2.32;;
68942;SDS011;60852;52.190;4.422;2023-08-31T07:32:07;2.61;;;2.06;;
68942;SDS011;60852;52.190;4.422;2023-08-31T07:34:33;2.95;;;2.28;;
68942;SDS011;60852;52.190;4.422;2023-08-31T07:36:59;2.87;;;2.27;;
68942;SDS011;60852;52.190;4.422;2023-08-31T07:39:25;2.76;;;2.21;;
68942;SDS011;60852;52.190;4.422;2023-08-31T07:41:52;2.44;;;1.92;;
68942;SDS011;60852;52.190;4.422;2023-08-31T07:44:19;2.57;;;2.01;;
68942;SDS011;60852;52.190;4.422;2023-08-31T07:46:45;2.56;;;2.02;;
68942;SDS011;60852;52.190;4.422;2023-08-31T07:49:10;2.66;;;2.10;;
68942;SDS011;60852;52.190;4.422;2023-08-31T07:51:36;2.44;;;1.93;;
68942;SDS011;60852;52.190;4.422;2023-08-31T07:54:01;3.07;;;2.43;;
68942;SDS011;60852;52.190;4.422;2023-08-31T07:56:28;2.55;;;2.04;;
68942;SDS011;60852;52.190;4.422;2023-08-31T07:58:54;2.92;;;2.36;;
68942;SDS011;60852;52.190;4.422;2023-08-31T08:01:19;2.83;;;2.25;;
68942;SDS011;60852;52.190;4.422;2023-08-31T08:03:45;2.43;;;1.91;;
68942;SDS011;60852;52.190;4.422;2023-08-31T08:06:10;2.67;;;2.06;;
68942;SDS011;60852;52.190;4.422;2023-08-31T08:08:36;2.81;;;2.18;;
68942;SDS011;60852;52.190;4.422;2023-08-31T08:11:03;2.93;;;2.32;;
68942;SDS011;60852;52.190;4.422;2023-08-31T08:13:30;2.78;;;2.19;;
68942;SDS011;60852;52.190;4.422;2023-08-31T08:15:55;2.68;;;2.05;;
68942;SDS011;60852;52.190;4.422;2023-08-31T08:18:21;2.36;;;1.80;;
68942;SDS011;60852;52.190;4.422;2023-08-31T08:20:52;2.25;;;1.75;;
68942;SDS011;60852;52.190;4.422;2023-08-31T08:23:19;2.47;;;1.97;;
68942;SDS011;60852;52.190;4.422;2023-08-31T08:25:44;2.58;;;2.05;;
68942;SDS011;60852;52.190;4.422;2023-08-31T08:28:10;3.76;;;2.95;;
68942;SDS011;60852;52.190;4.422;2023-08-31T08:30:36;3.79;;;3.00;;
68942;SDS011;60852;52.190;4.422;2023-08-31T08:33:01;2.72;;;2.11;;
68942;SDS011;60852;52.190;4.422;2023-08-31T08:35:27;2.81;;;2.19;;
68942;SDS011;60852;52.190;4.422;2023-08-31T08:37:53;2.61;;;1.99;;
68942;SDS011;60852;52.190;4.422;2023-08-31T08:40:18;2.69;;;2.07;;
68942;SDS011;60852;52.190;4.422;2023-08-31T08:42:45;2.74;;;2.12;;
68942;SDS011;60852;52.190;4.422;2023-08-31T08:45:15;2.41;;;1.92;;
68942;SDS011;60852;52.190;4.422;2023-08-31T08:47:44;2.81;;;2.24;;
68942;SDS011;60852;52.190;4.422;2023-08-31T08:50:12;2.58;;;2.03;;
68942;SDS011;60852;52.190;4.422;2023-08-31T08:52:41;2.57;;;1.97;;
68942;SDS011;60852;52.190;4.422;2023-08-31T08:55:08;2.52;;;1.93;;
68942;SDS011;60852;52.190;4.422;2023-08-31T08:57:34;2.43;;;1.87;;
68942;SDS011;60852;52.190;4.422;2023-08-31T09:00:00;2.61;;;2.06;;
68942;SDS011;60852;52.190;4.422;2023-08-31T09:02:25;2.35;;;1.84;;
68942;SDS011;60852;52.190;4.422;2023-08-31T09:04:51;2.30;;;1.77;;
68942;SDS011;60852;52.190;4.422;2023-08-31T09:07:20;2.63;;;2.05;;
68942;SDS011;60852;52.190;4.422;2023-08-31T09:09:50;2.73;;;2.14;;
68942;SDS011;60852;52.190;4.422;2023-08-31T09:12:17;2.40;;;1.89;;
68942;SDS011;60852;52.190;4.422;2023-08-31T09:14:43;2.58;;;2.02;;
68942;SDS011;60852;52.190;4.422;2023-08-31T09:17:22;2.34;;;1.84;;
68942;SDS011;60852;52.190;4.422;2023-08-31T09:19:58;2.74;;;2.12;;
68942;SDS011;60852;52.190;4.422;2023-08-31T09:22:25;2.84;;;2.24;;
68942;SDS011;60852;52.190;4.422;2023-08-31T09:24:50;2.00;;;1.61;;
68942;SDS011;60852;52.190;4.422;2023-08-31T09:27:15;2.33;;;1.90;;
68942;SDS011;60852;52.190;4.422;2023-08-31T09:29:44;2.05;;;1.68;;
68942;SDS011;60852;52.190;4.422;2023-08-31T09:32:15;2.13;;;1.73;;
68942;SDS011;60852;52.190;4.422;2023-08-31T09:34:42;2.19;;;1.76;;
68942;SDS011;60852;52.190;4.422;2023-08-31T09:37:10;2.03;;;1.62;;
68942;SDS011;60852;52.190;4.422;2023-08-31T09:39:39;2.16;;;1.75;;
68942;SDS011;60852;52.190;4.422;2023-08-31T09:42:05;2.04;;;1.68;;
68942;SDS011;60852;52.190;4.422;2023-08-31T09:44:31;2.09;;;1.71;;
68942;SDS011;60852;52.190;4.422;2023-08-31T09:46:56;2.09;;;1.66;;
68942;SDS011;60852;52.190;4.422;2023-08-31T09:49:23;2.09;;;1.69;;
68942;SDS011;60852;52.190;4.422;2023-08-31T09:51:51;1.93;;;1.54;;
68942;SDS011;60852;52.190;4.422;2023-08-31T09:54:17;2.41;;;1.89;;
68942;SDS011;60852;52.190;4.422;2023-08-31T09:56:47;2.06;;;1.63;;
68942;SDS011;60852;52.190;4.422;2023-08-31T09:59:14;2.10;;;1.71;;
68942;SDS011;60852;52.190;4.422;2023-08-31T10:01:41;2.04;;;1.69;;
68942;SDS011;60852;52.190;4.422;2023-08-31T10:04:09;2.09;;;1.75;;
68942;SDS011;60852;52.190;4.422;2023-08-31T10:06:36;1.95;;;1.63;;
68942;SDS011;60852;52.190;4.422;2023-08-31T10:09:04;1.99;;;1.66;;
68942;SDS011;60852;52.190;4.422;2023-08-31T10:11:30;2.16;;;1.74;;
68942;SDS011;60852;52.190;4.422;2023-08-31T10:13:57;2.05;;;1.64;;
68942;SDS011;60852;52.190;4.422;2023-08-31T10:16:27;2.11;;;1.68;;
68942;SDS011;60852;52.190;4.422;2023-08-31T10:18:54;2.21;;;1.78;;
68942;SDS011;60852;52.190;4.422;2023-08-31T10:21:20;2.24;;;1.84;;
68942;SDS011;60852;52.190;4.422;2023-08-31T10:23:47;1.96;;;1.60;;
68942;SDS011;60852;52.190;4.422;2023-08-31T10:26:47;1.93;;;1.57;;
68942;SDS011;60852;52.190;4.422;2023-08-31T10:29:05;2.01;;;1.65;;
68942;SDS011;60852;52.190;4.422;2023-08-31T10:31:32;1.90;;;1.55;;
68942;SDS011;60852;52.190;4.422;2023-08-31T10:33:59;2.09;;;1.69;;
68942;SDS011;60852;52.190;4.422;2023-08-31T10:39:14;2.14;;;1.69;;
68942;SDS011;60852;52.190;4.422;2023-08-31T10:41:41;2.23;;;1.77;;
68942;SDS011;60852;52.190;4.422;2023-08-31T10:46:52;2.19;;;1.71;;
68942;SDS011;60852;52.190;4.422;2023-08-31T10:49:19;1.93;;;1.51;;
68942;SDS011;60852;52.190;4.422;2023-08-31T10:54:12;2.18;;;1.73;;
68942;SDS011;60852;52.190;4.422;2023-08-31T10:59:26;2.39;;;1.95;;
68942;SDS011;60852;52.190;4.422;2023-08-31T11:07:33;2.17;;;1.76;;
68942;SDS011;60852;52.190;4.422;2023-08-31T11:12:55;1.81;;;1.51;;
68942;SDS011;60852;52.190;4.422;2023-08-31T11:15:23;1.41;;;1.17;;
68942;SDS011;60852;52.190;4.422;2023-08-31T11:17:51;1.97;;;1.62;;
68942;SDS011;60852;52.190;4.422;2023-08-31T11:20:19;1.89;;;1.54;;
68942;SDS011;60852;52.190;4.422;2023-08-31T11:22:46;2.28;;;1.86;;
68942;SDS011;60852;52.190;4.422;2023-08-31T11:25:18;2.36;;;1.90;;
68942;SDS011;60852;52.190;4.422;2023-08-31T11:27:54;2.12;;;1.72;;
68942;SDS011;60852;52.190;4.422;2023-08-31T11:30:20;2.13;;;1.73;;
68942;SDS011;60852;52.190;4.422;2023-08-31T11:32:50;1.91;;;1.58;;
68942;SDS011;60852;52.190;4.422;2023-08-31T11:35:18;2.08;;;1.71;;
68942;SDS011;60852;52.190;4.422;2023-08-31T11:37:48;2.17;;;1.75;;
68942;SDS011;60852;52.190;4.422;2023-08-31T11:40:15;2.04;;;1.61;;
68942;SDS011;60852;52.190;4.422;2023-08-31T11:42:41;2.28;;;1.79;;
68942;SDS011;60852;52.190;4.422;2023-08-31T11:45:07;2.09;;;1.67;;
68942;SDS011;60852;52.190;4.422;2023-08-31T11:47:36;1.98;;;1.61;;
68942;SDS011;60852;52.190;4.422;2023-08-31T11:50:04;2.04;;;1.64;;
68942;SDS011;60852;52.190;4.422;2023-08-31T11:52:32;2.12;;;1.68;;
68942;SDS011;60852;52.190;4.422;2023-08-31T11:54:58;2.12;;;1.68;;
68942;SDS011;60852;52.190;4.422;2023-08-31T11:57:25;1.94;;;1.56;;
68942;SDS011;60852;52.190;4.422;2023-08-31T11:59:51;2.15;;;1.76;;
68942;SDS011;60852;52.190;4.422;2023-08-31T12:02:20;2.06;;;1.68;;
68942;SDS011;60852;52.190;4.422;2023-08-31T12:04:46;2.22;;;1.84;;
68942;SDS011;60852;52.190;4.422;2023-08-31T12:07:21;1.87;;;1.55;;
68942;SDS011;60852;52.190;4.422;2023-08-31T12:09:47;1.80;;;1.48;;
68942;SDS011;60852;52.190;4.422;2023-08-31T12:12:15;1.88;;;1.52;;
68942;SDS011;60852;52.190;4.422;2023-08-31T12:14:45;1.98;;;1.61;;
68942;SDS011;60852;52.190;4.422;2023-08-31T12:17:10;1.88;;;1.55;;
68942;SDS011;60852;52.190;4.422;2023-08-31T12:19:36;2.13;;;1.73;;
68942;SDS011;60852;52.190;4.422;2023-08-31T12:22:04;2.24;;;1.81;;
68942;SDS011;60852;52.190;4.422;2023-08-31T12:24:39;2.11;;;1.77;;
68942;SDS011;60852;52.190;4.422;2023-08-31T12:27:06;1.87;;;1.61;;
68942;SDS011;60852;52.190;4.422;2023-08-31T12:29:32;1.63;;;1.38;;
68942;SDS011;60852;52.190;4.422;2023-08-31T12:31:57;1.89;;;1.57;;
68942;SDS011;60852;52.190;4.422;2023-08-31T12:34:23;2.03;;;1.69;;
68942;SDS011;60852;52.190;4.422;2023-08-31T12:36:49;1.86;;;1.55;;
68942;SDS011;60852;52.190;4.422;2023-08-31T12:39:14;1.74;;;1.46;;
68942;SDS011;60852;52.190;4.422;2023-08-31T12:41:40;1.91;;;1.61;;
68942;SDS011;60852;52.190;4.422;2023-08-31T12:44:06;1.89;;;1.61;;
68942;SDS011;60852;52.190;4.422;2023-08-31T12:46:32;1.78;;;1.57;;
68942;SDS011;60852;52.190;4.422;2023-08-31T12:49:02;1.99;;;1.77;;
68942;SDS011;60852;52.190;4.422;2023-08-31T12:51:31;1.79;;;1.56;;
68942;SDS011;60852;52.190;4.422;2023-08-31T12:53:57;1.73;;;1.52;;
68942;SDS011;60852;52.190;4.422;2023-08-31T12:56:23;1.81;;;1.58;;
68942;SDS011;60852;52.190;4.422;2023-08-31T12:58:49;1.65;;;1.43;;
68942;SDS011;60852;52.190;4.422;2023-08-31T13:01:18;1.89;;;1.61;;
68942;SDS011;60852;52.190;4.422;2023-08-31T13:03:46;1.91;;;1.60;;
68942;SDS011;60852;52.190;4.422;2023-08-31T13:06:13;1.81;;;1.53;;
68942;SDS011;60852;52.190;4.422;2023-08-31T13:08:39;1.81;;;1.57;;
68942;SDS011;60852;52.190;4.422;2023-08-31T13:11:04;1.82;;;1.63;;
68942;SDS011;60852;52.190;4.422;2023-08-31T13:13:30;1.51;;;1.39;;
68942;SDS011;60852;52.190;4.422;2023-08-31T13:15:59;1.75;;;1.59;;
68942;SDS011;60852;52.190;4.422;2023-08-31T13:18:25;2.06;;;1.88;;
68942;SDS011;60852;52.190;4.422;2023-08-31T13:20:53;2.00;;;1.85;;
68942;SDS011;60852;52.190;4.422;2023-08-31T13:23:19;1.85;;;1.69;;
68942;SDS011;60852;52.190;4.422;2023-08-31T13:25:46;1.56;;;1.44;;
68942;SDS011;60852;52.190;4.422;2023-08-31T13:28:12;1.49;;;1.38;;
68942;SDS011;60852;52.190;4.422;2023-08-31T13:30:38;1.68;;;1.54;;
68942;SDS011;60852;52.190;4.422;2023-08-31T13:33:04;1.57;;;1.44;;
68942;SDS011;60852;52.190;4.422;2023-08-31T13:35:30;1.74;;;1.57;;
68942;SDS011;60852;52.190;4.422;2023-08-31T13:37:56;1.82;;;1.65;;
68942;SDS011;60852;52.190;4.422;2023-08-31T13:40:21;1.56;;;1.42;;
68942;SDS011;60852;52.190;4.422;2023-08-31T13:42:54;1.66;;;1.51;;
68942;SDS011;60852;52.190;4.422;2023-08-31T13:45:24;1.54;;;1.39;;
68942;SDS011;60852;52.190;4.422;2023-08-31T13:47:49;1.75;;;1.58;;
68942;SDS011;60852;52.190;4.422;2023-08-31T13:50:16;1.56;;;1.41;;
68942;SDS011;60852;52.190;4.422;2023-08-31T13:52:41;1.70;;;1.55;;
68942;SDS011;60852;52.190;4.422;2023-08-31T13:55:07;1.62;;;1.48;;
68942;SDS011;60852;52.190;4.422;2023-08-31T13:57:33;1.59;;;1.47;;
68942;SDS011;60852;52.190;4.422;2023-08-31T13:59:58;1.81;;;1.67;;
68942;SDS011;60852;52.190;4.422;2023-08-31T14:02:25;1.85;;;1.73;;
68942;SDS011;60852;52.190;4.422;2023-08-31T14:04:50;1.43;;;1.35;;
68942;SDS011;60852;52.190;4.422;2023-08-31T14:07:17;1.95;;;1.85;;
68942;SDS011;60852;52.190;4.422;2023-08-31T14:09:42;2.47;;;2.27;;
68942;SDS011;60852;52.190;4.422;2023-08-31T14:12:08;2.19;;;2.01;;
68942;SDS011;60852;52.190;4.422;2023-08-31T14:14:34;1.59;;;1.49;;
68942;SDS011;60852;52.190;4.422;2023-08-31T14:16:59;1.61;;;1.51;;
68942;SDS011;60852;52.190;4.422;2023-08-31T14:19:25;2.54;;;2.40;;
68942;SDS011;60852;52.190;4.422;2023-08-31T14:21:51;1.54;;;1.48;;
68942;SDS011;60852;52.190;4.422;2023-08-31T14:24:18;1.84;;;1.76;;
68942;SDS011;60852;52.190;4.422;2023-08-31T14:26:44;1.46;;;1.40;;
68942;SDS011;60852;52.190;4.422;2023-08-31T14:29:10;1.68;;;1.57;;
68942;SDS011;60852;52.190;4.422;2023-08-31T14:31:37;1.56;;;1.45;;
68942;SDS011;60852;52.190;4.422;2023-08-31T14:34:03;1.47;;;1.37;;
68942;SDS011;60852;52.190;4.422;2023-08-31T14:36:28;1.62;;;1.49;;
68942;SDS011;60852;52.190;4.422;2023-08-31T14:38:54;1.57;;;1.45;;
68942;SDS011;60852;52.190;4.422;2023-08-31T14:41:19;1.45;;;1.36;;
68942;SDS011;60852;52.190;4.422;2023-08-31T14:43:45;1.54;;;1.45;;
68942;SDS011;60852;52.190;4.422;2023-08-31T14:46:10;1.61;;;1.50;;
68942;SDS011;60852;52.190;4.422;2023-08-31T14:48:35;1.62;;;1.48;;
68942;SDS011;60852;52.190;4.422;2023-08-31T14:51:01;1.39;;;1.27;;
68942;SDS011;60852;52.190;4.422;2023-08-31T14:53:27;1.61;;;1.50;;
68942;SDS011;60852;52.190;4.422;2023-08-31T14:55:53;2.58;;;2.37;;
68942;SDS011;60852;52.190;4.422;2023-08-31T14:58:18;1.98;;;1.76;;
68942;SDS011;60852;52.190;4.422;2023-08-31T15:00:44;1.72;;;1.55;;
68942;SDS011;60852;52.190;4.422;2023-08-31T15:03:10;1.63;;;1.49;;
68942;SDS011;60852;52.190;4.422;2023-08-31T15:05:36;1.66;;;1.56;;
68942;SDS011;60852;52.190;4.422;2023-08-31T15:08:04;1.42;;;1.36;;